sensor_id;sensor_type;location;lat;lon;timestamp;P1;durP1;ratioP1;P2;durP2;ratioP2
51840;SDS011;37888;53.246;6.658;2023-08-31T00:02:11;2.47;;;0.50;;
51840;SDS011;37888;53.246;6.658;2023-08-31T00:04:37;1.42;;;0.40;;
51840;SDS011;37888;53.246;6.658;2023-08-31T00:07:02;2.40;;;0.47;;
51840;SDS011;37888;53.246;6.658;2023-08-31T00:09:28;3.92;;;0.43;;
51840;SDS011;37888;53.246;6.658;2023-08-31T00:11:57;1.40;;;0.40;;
51840;SDS011;37888;53.246;6.658;2023-08-31T00:14:24;3.08;;;0.47;;
51840;SDS011;37888;53.246;6.658;2023-08-31T00:16:49;1.20;;;0.50;;
51840;SDS011;37888;53.246;6.658;2023-08-31T00:19:15;2.78;;;0.50;;
51840;SDS011;37888;53.246;6.658;2023-08-31T00:21:41;1.33;;;0.60;;
51840;SDS011;37888;53.246;6.658;2023-08-31T00:24:08;3.43;;;0.70;;
51840;SDS011;37888;53.246;6.658;2023-08-31T00:26:35;1.48;;;0.60;;
51840;SDS011;37888;53.246;6.658;2023-08-31T00:29:05;2.22;;;0.70;;
51840;SDS011;37888;53.246;6.658;2023-08-31T00:31:32;1.05;;;0.40;;
51840;SDS011;37888;53.246;6.658;2023-08-31T00:33:59;2.33;;;0.70;;
51840;SDS011;37888;53.246;6.658;2023-08-31T00:36:32;2.67;;;0.68;;
51840;SDS011;37888;53.246;6.658;2023-08-31T00:39:02;1.65;;;0.70;;
51840;SDS011;37888;53.246;6.658;2023-08-31T00:41:30;2.88;;;0.70;;
51840;SDS011;37888;53.246;6.658;2023-08-31T00:43:57;2.35;;;0.90;;
51840;SDS011;37888;53.246;6.658;2023-08-31T00:46:23;3.05;;;1.00;;
51840;SDS011;37888;53.246;6.658;2023-08-31T00:48:49;2.15;;;1.20;;
51840;SDS011;37888;53.246;6.658;2023-08-31T00:51:15;4.15;;;1.23;;
51840;SDS011;37888;53.246;6.658;2023-08-31T00:53:42;3.80;;;1.55;;
51840;SDS011;37888;53.246;6.658;2023-08-31T00:56:08;2.58;;;1.67;;
51840;SDS011;37888;53.246;6.658;2023-08-31T00:58:34;4.03;;;1.42;;
51840;SDS011;37888;53.246;6.658;2023-08-31T01:14:16;3.63;;;1.70;;
51840;SDS011;37888;53.246;6.658;2023-08-31T01:16:45;4.45;;;1.95;;
51840;SDS011;37888;53.246;6.658;2023-08-31T01:19:32;4.18;;;1.83;;
51840;SDS011;37888;53.246;6.658;2023-08-31T01:22:00;2.78;;;1.55;;
51840;SDS011;37888;53.246;6.658;2023-08-31T01:24:32;4.60;;;2.00;;
51840;SDS011;37888;53.246;6.658;2023-08-31T01:27:00;3.78;;;1.75;;
51840;SDS011;37888;53.246;6.658;2023-08-31T01:29:26;5.05;;;2.10;;
51840;SDS011;37888;53.246;6.658;2023-08-31T01:31:54;3.92;;;1.80;;
51840;SDS011;37888;53.246;6.658;2023-08-31T01:34:20;2.65;;;1.80;;
51840;SDS011;37888;53.246;6.658;2023-08-31T01:36:46;2.95;;;1.75;;
51840;SDS011;37888;53.246;6.658;2023-08-31T01:39:21;2.55;;;1.80;;
51840;SDS011;37888;53.246;6.658;2023-08-31T01:41:55;2.65;;;1.58;;
51840;SDS011;37888;53.246;6.658;2023-08-31T01:44:23;3.42;;;1.60;;
51840;SDS011;37888;53.246;6.658;2023-08-31T01:49:17;4.63;;;1.80;;
51840;SDS011;37888;53.246;6.658;2023-08-31T01:51:44;4.13;;;1.60;;
51840;SDS011;37888;53.246;6.658;2023-08-31T01:54:10;2.30;;;1.40;;
51840;SDS011;37888;53.246;6.658;2023-08-31T01:56:35;1.73;;;1.40;;
51840;SDS011;37888;53.246;6.658;2023-08-31T01:59:01;2.45;;;1.30;;
51840;SDS011;37888;53.246;6.658;2023-08-31T02:01:27;4.45;;;1.30;;
51840;SDS011;37888;53.246;6.658;2023-08-31T02:03:54;1.85;;;1.30;;
51840;SDS011;37888;53.246;6.658;2023-08-31T02:06:20;1.85;;;1.00;;
51840;SDS011;37888;53.246;6.658;2023-08-31T02:08:46;4.47;;;1.10;;
51840;SDS011;37888;53.246;6.658;2023-08-31T02:11:12;2.93;;;1.47;;
51840;SDS011;37888;53.246;6.658;2023-08-31T02:13:40;2.92;;;1.08;;
51840;SDS011;37888;53.246;6.658;2023-08-31T02:16:07;4.35;;;1.23;;
51840;SDS011;37888;53.246;6.658;2023-08-31T02:18:32;2.33;;;0.82;;
51840;SDS011;37888;53.246;6.658;2023-08-31T02:20:58;1.92;;;0.88;;
51840;SDS011;37888;53.246;6.658;2023-08-31T02:23:24;1.95;;;0.85;;
51840;SDS011;37888;53.246;6.658;2023-08-31T02:25:50;3.83;;;1.10;;
51840;SDS011;37888;53.246;6.658;2023-08-31T02:28:15;2.15;;;0.80;;
51840;SDS011;37888;53.246;6.658;2023-08-31T02:30:43;2.05;;;0.95;;
51840;SDS011;37888;53.246;6.658;2023-08-31T02:33:09;2.33;;;0.95;;
51840;SDS011;37888;53.246;6.658;2023-08-31T02:35:35;2.25;;;0.82;;
51840;SDS011;37888;53.246;6.658;2023-08-31T02:38:01;2.75;;;0.75;;
51840;SDS011;37888;53.246;6.658;2023-08-31T02:40:27;5.38;;;0.82;;
51840;SDS011;37888;53.246;6.658;2023-08-31T02:42:53;2.83;;;0.80;;
51840;SDS011;37888;53.246;6.658;2023-08-31T02:45:19;3.08;;;0.70;;
51840;SDS011;37888;53.246;6.658;2023-08-31T02:47:44;2.25;;;0.80;;
51840;SDS011;37888;53.246;6.658;2023-08-31T02:50:10;3.40;;;0.80;;
51840;SDS011;37888;53.246;6.658;2023-08-31T02:52:36;1.92;;;0.90;;
51840;SDS011;37888;53.246;6.658;2023-08-31T02:55:02;2.15;;;0.75;;
51840;SDS011;37888;53.246;6.658;2023-08-31T02:57:27;1.05;;;0.60;;
51840;SDS011;37888;53.246;6.658;2023-08-31T02:59:53;1.25;;;0.68;;
51840;SDS011;37888;53.246;6.658;2023-08-31T03:02:19;1.95;;;0.82;;
51840;SDS011;37888;53.246;6.658;2023-08-31T03:04:45;2.88;;;0.60;;
51840;SDS011;37888;53.246;6.658;2023-08-31T03:07:10;2.20;;;0.70;;
51840;SDS011;37888;53.246;6.658;2023-08-31T03:09:39;1.40;;;0.57;;
51840;SDS011;37888;53.246;6.658;2023-08-31T03:12:07;2.40;;;0.60;;
51840;SDS011;37888;53.246;6.658;2023-08-31T03:14:33;1.98;;;0.70;;
51840;SDS011;37888;53.246;6.658;2023-08-31T03:16:59;4.28;;;0.80;;
51840;SDS011;37888;53.246;6.658;2023-08-31T03:19:25;7.68;;;0.85;;
51840;SDS011;37888;53.246;6.658;2023-08-31T03:21:50;0.70;;;0.50;;
51840;SDS011;37888;53.246;6.658;2023-08-31T03:24:16;2.38;;;0.70;;
51840;SDS011;37888;53.246;6.658;2023-08-31T03:26:42;3.08;;;0.65;;
51840;SDS011;37888;53.246;6.658;2023-08-31T03:29:08;3.75;;;0.85;;
51840;SDS011;37888;53.246;6.658;2023-08-31T03:31:33;1.52;;;0.57;;
51840;SDS011;37888;53.246;6.658;2023-08-31T03:33:59;2.85;;;0.80;;
51840;SDS011;37888;53.246;6.658;2023-08-31T03:36:25;2.30;;;1.00;;
51840;SDS011;37888;53.246;6.658;2023-08-31T03:38:51;3.17;;;0.50;;
51840;SDS011;37888;53.246;6.658;2023-08-31T03:41:16;1.77;;;0.65;;
51840;SDS011;37888;53.246;6.658;2023-08-31T03:43:42;2.58;;;0.70;;
51840;SDS011;37888;53.246;6.658;2023-08-31T03:46:08;3.00;;;0.70;;
51840;SDS011;37888;53.246;6.658;2023-08-31T03:48:34;2.63;;;0.80;;
51840;SDS011;37888;53.246;6.658;2023-08-31T03:51:00;2.25;;;0.57;;
51840;SDS011;37888;53.246;6.658;2023-08-31T03:53:26;1.33;;;0.50;;
51840;SDS011;37888;53.246;6.658;2023-08-31T03:55:51;1.95;;;0.82;;
51840;SDS011;37888;53.246;6.658;2023-08-31T03:58:17;1.20;;;0.60;;
51840;SDS011;37888;53.246;6.658;2023-08-31T04:00:43;1.67;;;0.70;;
51840;SDS011;37888;53.246;6.658;2023-08-31T04:03:09;2.28;;;0.82;;
51840;SDS011;37888;53.246;6.658;2023-08-31T04:05:35;2.10;;;0.73;;
51840;SDS011;37888;53.246;6.658;2023-08-31T04:08:01;1.88;;;0.77;;
51840;SDS011;37888;53.246;6.658;2023-08-31T04:10:27;2.20;;;0.63;;
51840;SDS011;37888;53.246;6.658;2023-08-31T04:12:55;3.05;;;0.63;;
51840;SDS011;37888;53.246;6.658;2023-08-31T04:15:20;2.53;;;0.70;;
51840;SDS011;37888;53.246;6.658;2023-08-31T04:17:46;1.98;;;0.70;;
51840;SDS011;37888;53.246;6.658;2023-08-31T04:20:12;2.83;;;0.90;;
51840;SDS011;37888;53.246;6.658;2023-08-31T04:22:38;1.83;;;0.80;;
51840;SDS011;37888;53.246;6.658;2023-08-31T04:25:04;1.10;;;0.60;;
51840;SDS011;37888;53.246;6.658;2023-08-31T04:27:29;2.15;;;0.85;;
51840;SDS011;37888;53.246;6.658;2023-08-31T04:29:58;2.58;;;1.10;;
51840;SDS011;37888;53.246;6.658;2023-08-31T04:34:52;1.90;;;0.75;;
51840;SDS011;37888;53.246;6.658;2023-08-31T04:37:20;1.85;;;1.08;;
51840;SDS011;37888;53.246;6.658;2023-08-31T04:39:49;1.83;;;0.77;;
51840;SDS011;37888;53.246;6.658;2023-08-31T04:42:14;4.82;;;1.27;;
51840;SDS011;37888;53.246;6.658;2023-08-31T04:44:43;1.92;;;0.75;;
51840;SDS011;37888;53.246;6.658;2023-08-31T04:47:10;3.35;;;1.20;;
51840;SDS011;37888;53.246;6.658;2023-08-31T04:49:36;1.37;;;0.97;;
51840;SDS011;37888;53.246;6.658;2023-08-31T04:52:01;1.88;;;0.98;;
51840;SDS011;37888;53.246;6.658;2023-08-31T04:54:27;1.88;;;1.00;;
51840;SDS011;37888;53.246;6.658;2023-08-31T04:56:53;2.95;;;1.17;;
51840;SDS011;37888;53.246;6.658;2023-08-31T04:59:19;4.15;;;1.60;;
51840;SDS011;37888;53.246;6.658;2023-08-31T05:01:45;2.75;;;1.08;;
51840;SDS011;37888;53.246;6.658;2023-08-31T05:04:10;3.35;;;1.40;;
51840;SDS011;37888;53.246;6.658;2023-08-31T05:06:36;2.15;;;1.08;;
51840;SDS011;37888;53.246;6.658;2023-08-31T05:09:02;2.17;;;1.00;;
51840;SDS011;37888;53.246;6.658;2023-08-31T05:11:28;4.45;;;1.25;;
51840;SDS011;37888;53.246;6.658;2023-08-31T05:13:54;2.17;;;1.27;;
51840;SDS011;37888;53.246;6.658;2023-08-31T05:16:19;3.33;;;0.90;;
51840;SDS011;37888;53.246;6.658;2023-08-31T05:18:45;2.97;;;1.00;;
51840;SDS011;37888;53.246;6.658;2023-08-31T05:21:11;2.22;;;1.13;;
51840;SDS011;37888;53.246;6.658;2023-08-31T05:23:37;2.00;;;0.88;;
51840;SDS011;37888;53.246;6.658;2023-08-31T05:26:02;2.95;;;1.13;;
51840;SDS011;37888;53.246;6.658;2023-08-31T05:28:28;2.65;;;0.98;;
51840;SDS011;37888;53.246;6.658;2023-08-31T05:30:55;4.38;;;1.00;;
51840;SDS011;37888;53.246;6.658;2023-08-31T05:33:23;1.98;;;1.00;;
51840;SDS011;37888;53.246;6.658;2023-08-31T05:38:16;2.85;;;1.20;;
51840;SDS011;37888;53.246;6.658;2023-08-31T05:40:42;2.45;;;0.80;;
51840;SDS011;37888;53.246;6.658;2023-08-31T05:43:13;2.40;;;1.00;;
51840;SDS011;37888;53.246;6.658;2023-08-31T05:45:39;1.80;;;0.77;;
51840;SDS011;37888;53.246;6.658;2023-08-31T05:48:05;8.07;;;1.50;;
51840;SDS011;37888;53.246;6.658;2023-08-31T05:50:31;4.85;;;0.93;;
51840;SDS011;37888;53.246;6.658;2023-08-31T05:52:58;3.58;;;0.93;;
51840;SDS011;37888;53.246;6.658;2023-08-31T05:55:24;5.00;;;1.02;;
51840;SDS011;37888;53.246;6.658;2023-08-31T05:57:50;2.45;;;0.70;;
51840;SDS011;37888;53.246;6.658;2023-08-31T06:00:15;2.30;;;0.60;;
51840;SDS011;37888;53.246;6.658;2023-08-31T06:02:42;2.97;;;0.57;;
51840;SDS011;37888;53.246;6.658;2023-08-31T06:05:11;1.65;;;0.65;;
51840;SDS011;37888;53.246;6.658;2023-08-31T06:07:37;2.67;;;0.70;;
51840;SDS011;37888;53.246;6.658;2023-08-31T06:10:05;3.90;;;0.80;;
51840;SDS011;37888;53.246;6.658;2023-08-31T06:12:31;1.42;;;0.45;;
51840;SDS011;37888;53.246;6.658;2023-08-31T06:14:57;2.47;;;0.68;;
51840;SDS011;37888;53.246;6.658;2023-08-31T06:17:23;2.63;;;0.65;;
51840;SDS011;37888;53.246;6.658;2023-08-31T06:19:49;2.50;;;0.60;;
51840;SDS011;37888;53.246;6.658;2023-08-31T06:22:15;3.92;;;0.70;;
51840;SDS011;37888;53.246;6.658;2023-08-31T06:24:40;2.95;;;0.65;;
51840;SDS011;37888;53.246;6.658;2023-08-31T06:27:10;3.88;;;0.80;;
51840;SDS011;37888;53.246;6.658;2023-08-31T06:29:37;2.63;;;0.55;;
51840;SDS011;37888;53.246;6.658;2023-08-31T06:32:03;2.97;;;0.50;;
51840;SDS011;37888;53.246;6.658;2023-08-31T06:34:29;1.00;;;0.40;;
51840;SDS011;37888;53.246;6.658;2023-08-31T06:36:56;7.00;;;1.25;;
51840;SDS011;37888;53.246;6.658;2023-08-31T06:39:23;3.97;;;0.80;;
51840;SDS011;37888;53.246;6.658;2023-08-31T06:41:49;2.90;;;0.80;;
51840;SDS011;37888;53.246;6.658;2023-08-31T06:44:15;1.63;;;0.50;;
51840;SDS011;37888;53.246;6.658;2023-08-31T06:46:42;1.40;;;0.38;;
51840;SDS011;37888;53.246;6.658;2023-08-31T06:49:07;3.50;;;0.50;;
51840;SDS011;37888;53.246;6.658;2023-08-31T06:51:34;2.22;;;0.52;;
51840;SDS011;37888;53.246;6.658;2023-08-31T06:54:00;3.50;;;0.40;;
51840;SDS011;37888;53.246;6.658;2023-08-31T06:56:35;3.30;;;0.52;;
51840;SDS011;37888;53.246;6.658;2023-08-31T06:59:01;1.67;;;0.50;;
51840;SDS011;37888;53.246;6.658;2023-08-31T07:01:28;3.03;;;0.50;;
51840;SDS011;37888;53.246;6.658;2023-08-31T07:03:57;1.85;;;0.40;;
51840;SDS011;37888;53.246;6.658;2023-08-31T07:06:23;3.45;;;0.40;;
51840;SDS011;37888;53.246;6.658;2023-08-31T07:08:49;1.75;;;0.52;;
51840;SDS011;37888;53.246;6.658;2023-08-31T07:11:16;1.55;;;0.45;;
51840;SDS011;37888;53.246;6.658;2023-08-31T07:13:42;3.63;;;0.50;;
51840;SDS011;37888;53.246;6.658;2023-08-31T07:16:08;0.85;;;0.40;;
51840;SDS011;37888;53.246;6.658;2023-08-31T07:18:35;2.10;;;0.40;;
51840;SDS011;37888;53.246;6.658;2023-08-31T07:21:02;1.52;;;0.30;;
51840;SDS011;37888;53.246;6.658;2023-08-31T07:23:29;2.05;;;0.52;;
51840;SDS011;37888;53.246;6.658;2023-08-31T07:25:58;2.28;;;0.52;;
51840;SDS011;37888;53.246;6.658;2023-08-31T07:28:25;1.98;;;0.30;;
51840;SDS011;37888;53.246;6.658;2023-08-31T07:31:04;3.42;;;0.40;;
51840;SDS011;37888;53.246;6.658;2023-08-31T07:33:31;2.42;;;0.20;;
51840;SDS011;37888;53.246;6.658;2023-08-31T07:35:58;2.00;;;0.43;;
51840;SDS011;37888;53.246;6.658;2023-08-31T07:38:24;2.03;;;0.40;;
51840;SDS011;37888;53.246;6.658;2023-08-31T07:43:17;1.75;;;0.35;;
51840;SDS011;37888;53.246;6.658;2023-08-31T07:45:43;1.80;;;0.63;;
51840;SDS011;37888;53.246;6.658;2023-08-31T07:48:09;1.27;;;0.25;;
51840;SDS011;37888;53.246;6.658;2023-08-31T07:50:35;2.25;;;0.20;;
51840;SDS011;37888;53.246;6.658;2023-08-31T07:53:01;1.27;;;0.40;;
51840;SDS011;37888;53.246;6.658;2023-08-31T07:55:26;1.88;;;0.35;;
51840;SDS011;37888;53.246;6.658;2023-08-31T07:57:52;2.28;;;0.63;;
51840;SDS011;37888;53.246;6.658;2023-08-31T08:00:18;1.73;;;0.32;;
51840;SDS011;37888;53.246;6.658;2023-08-31T08:02:47;3.55;;;0.35;;
51840;SDS011;37888;53.246;6.658;2023-08-31T08:05:13;1.27;;;0.20;;
51840;SDS011;37888;53.246;6.658;2023-08-31T08:07:38;1.45;;;0.20;;
51840;SDS011;37888;53.246;6.658;2023-08-31T08:10:11;2.33;;;0.40;;
51840;SDS011;37888;53.246;6.658;2023-08-31T08:12:40;1.10;;;0.20;;
51840;SDS011;37888;53.246;6.658;2023-08-31T08:15:10;1.23;;;0.22;;
51840;SDS011;37888;53.246;6.658;2023-08-31T08:17:36;2.27;;;0.40;;
51840;SDS011;37888;53.246;6.658;2023-08-31T08:20:02;0.90;;;0.20;;
51840;SDS011;37888;53.246;6.658;2023-08-31T08:22:30;1.17;;;0.30;;
51840;SDS011;37888;53.246;6.658;2023-08-31T08:24:56;0.40;;;0.10;;
51840;SDS011;37888;53.246;6.658;2023-08-31T08:27:22;0.83;;;0.30;;
51840;SDS011;37888;53.246;6.658;2023-08-31T08:29:48;0.97;;;0.50;;
51840;SDS011;37888;53.246;6.658;2023-08-31T08:32:14;1.20;;;0.30;;
51840;SDS011;37888;53.246;6.658;2023-08-31T08:34:40;1.17;;;0.30;;
51840;SDS011;37888;53.246;6.658;2023-08-31T08:37:05;1.70;;;0.30;;
51840;SDS011;37888;53.246;6.658;2023-08-31T08:39:31;0.73;;;0.20;;
51840;SDS011;37888;53.246;6.658;2023-08-31T08:42:00;3.70;;;0.37;;
51840;SDS011;37888;53.246;6.658;2023-08-31T08:44:33;1.65;;;0.20;;
51840;SDS011;37888;53.246;6.658;2023-08-31T08:47:00;1.27;;;0.30;;
51840;SDS011;37888;53.246;6.658;2023-08-31T08:49:27;1.13;;;0.20;;
51840;SDS011;37888;53.246;6.658;2023-08-31T08:51:54;0.95;;;0.20;;
51840;SDS011;37888;53.246;6.658;2023-08-31T08:54:21;1.10;;;0.22;;
51840;SDS011;37888;53.246;6.658;2023-08-31T08:56:52;3.17;;;0.30;;
51840;SDS011;37888;53.246;6.658;2023-08-31T08:59:17;0.35;;;0.20;;
51840;SDS011;37888;53.246;6.658;2023-08-31T09:01:45;1.13;;;0.30;;
51840;SDS011;37888;53.246;6.658;2023-08-31T09:04:11;2.35;;;0.20;;
51840;SDS011;37888;53.246;6.658;2023-08-31T09:06:38;0.98;;;0.20;;
51840;SDS011;37888;53.246;6.658;2023-08-31T09:09:04;2.08;;;0.20;;
51840;SDS011;37888;53.246;6.658;2023-08-31T09:11:30;2.42;;;0.55;;
51840;SDS011;37888;53.246;6.658;2023-08-31T09:13:56;0.98;;;0.15;;
51840;SDS011;37888;53.246;6.658;2023-08-31T09:16:27;0.25;;;0.20;;
51840;SDS011;37888;53.246;6.658;2023-08-31T09:18:57;1.10;;;0.25;;
51840;SDS011;37888;53.246;6.658;2023-08-31T09:21:36;1.75;;;0.30;;
51840;SDS011;37888;53.246;6.658;2023-08-31T09:24:04;3.10;;;0.40;;
51840;SDS011;37888;53.246;6.658;2023-08-31T09:26:37;1.55;;;0.25;;
51840;SDS011;37888;53.246;6.658;2023-08-31T09:29:04;0.65;;;0.20;;
51840;SDS011;37888;53.246;6.658;2023-08-31T09:31:31;0.40;;;0.20;;
51840;SDS011;37888;53.246;6.658;2023-08-31T09:33:56;1.25;;;0.20;;
51840;SDS011;37888;53.246;6.658;2023-08-31T09:36:22;1.50;;;0.30;;
51840;SDS011;37888;53.246;6.658;2023-08-31T09:38:48;1.60;;;0.35;;
51840;SDS011;37888;53.246;6.658;2023-08-31T09:41:14;2.30;;;0.30;;
51840;SDS011;37888;53.246;6.658;2023-08-31T09:43:40;0.75;;;0.20;;
51840;SDS011;37888;53.246;6.658;2023-08-31T09:46:07;0.85;;;0.32;;
51840;SDS011;37888;53.246;6.658;2023-08-31T09:48:34;1.63;;;0.25;;
51840;SDS011;37888;53.246;6.658;2023-08-31T09:51:03;3.80;;;0.50;;
51840;SDS011;37888;53.246;6.658;2023-08-31T09:53:29;2.38;;;0.47;;
51840;SDS011;37888;53.246;6.658;2023-08-31T09:55:57;1.63;;;0.30;;
51840;SDS011;37888;53.246;6.658;2023-08-31T09:58:23;3.30;;;0.45;;
51840;SDS011;37888;53.246;6.658;2023-08-31T10:00:49;0.73;;;0.20;;
51840;SDS011;37888;53.246;6.658;2023-08-31T10:03:16;0.52;;;0.20;;
51840;SDS011;37888;53.246;6.658;2023-08-31T10:05:46;0.88;;;0.30;;
51840;SDS011;37888;53.246;6.658;2023-08-31T10:08:12;0.80;;;0.35;;
51840;SDS011;37888;53.246;6.658;2023-08-31T10:10:40;0.95;;;0.25;;
51840;SDS011;37888;53.246;6.658;2023-08-31T10:13:06;1.25;;;0.20;;
51840;SDS011;37888;53.246;6.658;2023-08-31T10:15:32;1.58;;;0.20;;
51840;SDS011;37888;53.246;6.658;2023-08-31T10:18:00;2.55;;;0.40;;
51840;SDS011;37888;53.246;6.658;2023-08-31T10:22:57;0.68;;;0.30;;
51840;SDS011;37888;53.246;6.658;2023-08-31T10:25:23;0.63;;;0.30;;
51840;SDS011;37888;53.246;6.658;2023-08-31T10:27:51;1.55;;;0.47;;
51840;SDS011;37888;53.246;6.658;2023-08-31T10:38:19;2.53;;;0.40;;
51840;SDS011;37888;53.246;6.658;2023-08-31T10:43:42;1.20;;;0.50;;
51840;SDS011;37888;53.246;6.658;2023-08-31T10:46:18;1.67;;;0.30;;
51840;SDS011;37888;53.246;6.658;2023-08-31T10:48:54;1.48;;;0.35;;
51840;SDS011;37888;53.246;6.658;2023-08-31T10:51:30;2.08;;;0.60;;
51840;SDS011;37888;53.246;6.658;2023-08-31T10:54:04;1.38;;;0.30;;
51840;SDS011;37888;53.246;6.658;2023-08-31T10:56:29;0.85;;;0.40;;
51840;SDS011;37888;53.246;6.658;2023-08-31T10:58:57;0.63;;;0.30;;
51840;SDS011;37888;53.246;6.658;2023-08-31T11:04:21;2.75;;;0.50;;
51840;SDS011;37888;53.246;6.658;2023-08-31T11:06:48;2.53;;;0.50;;
51840;SDS011;37888;53.246;6.658;2023-08-31T11:09:20;1.58;;;0.30;;
51840;SDS011;37888;53.246;6.658;2023-08-31T11:11:47;2.22;;;0.38;;
51840;SDS011;37888;53.246;6.658;2023-08-31T11:14:14;1.13;;;0.30;;
51840;SDS011;37888;53.246;6.658;2023-08-31T11:19:06;0.55;;;0.15;;
51840;SDS011;37888;53.246;6.658;2023-08-31T11:21:33;3.08;;;0.40;;
51840;SDS011;37888;53.246;6.658;2023-08-31T11:24:01;1.30;;;0.30;;
51840;SDS011;37888;53.246;6.658;2023-08-31T11:26:28;0.60;;;0.28;;
51840;SDS011;37888;53.246;6.658;2023-08-31T11:28:56;1.80;;;0.50;;
51840;SDS011;37888;53.246;6.658;2023-08-31T11:31:23;20.55;;;1.77;;
51840;SDS011;37888;53.246;6.658;2023-08-31T11:33:49;2.08;;;0.68;;
51840;SDS011;37888;53.246;6.658;2023-08-31T11:36:15;0.90;;;0.30;;
51840;SDS011;37888;53.246;6.658;2023-08-31T11:38:44;1.50;;;0.50;;
51840;SDS011;37888;53.246;6.658;2023-08-31T11:41:10;0.65;;;0.30;;
51840;SDS011;37888;53.246;6.658;2023-08-31T11:43:36;0.90;;;0.30;;
51840;SDS011;37888;53.246;6.658;2023-08-31T11:46:03;2.50;;;0.30;;
51840;SDS011;37888;53.246;6.658;2023-08-31T11:48:30;1.48;;;0.40;;
51840;SDS011;37888;53.246;6.658;2023-08-31T11:50:56;0.68;;;0.22;;
51840;SDS011;37888;53.246;6.658;2023-08-31T11:53:23;1.65;;;0.20;;
51840;SDS011;37888;53.246;6.658;2023-08-31T11:55:50;1.13;;;0.20;;
51840;SDS011;37888;53.246;6.658;2023-08-31T11:58:17;0.63;;;0.30;;
51840;SDS011;37888;53.246;6.658;2023-08-31T12:00:43;2.08;;;0.45;;
51840;SDS011;37888;53.246;6.658;2023-08-31T12:03:09;3.65;;;0.50;;
51840;SDS011;37888;53.246;6.658;2023-08-31T12:05:44;0.75;;;0.20;;
51840;SDS011;37888;53.246;6.658;2023-08-31T12:08:11;2.20;;;0.40;;
51840;SDS011;37888;53.246;6.658;2023-08-31T12:10:40;1.42;;;0.40;;
51840;SDS011;37888;53.246;6.658;2023-08-31T12:13:10;1.17;;;0.40;;
51840;SDS011;37888;53.246;6.658;2023-08-31T12:15:36;2.30;;;0.43;;
51840;SDS011;37888;53.246;6.658;2023-08-31T12:18:08;0.75;;;0.35;;
51840;SDS011;37888;53.246;6.658;2023-08-31T12:20:47;0.93;;;0.40;;
51840;SDS011;37888;53.246;6.658;2023-08-31T12:23:17;2.25;;;0.52;;
51840;SDS011;37888;53.246;6.658;2023-08-31T12:25:49;1.75;;;0.63;;
51840;SDS011;37888;53.246;6.658;2023-08-31T12:28:19;1.90;;;0.60;;
51840;SDS011;37888;53.246;6.658;2023-08-31T12:30:50;1.23;;;0.60;;
51840;SDS011;37888;53.246;6.658;2023-08-31T12:33:17;1.95;;;0.50;;
51840;SDS011;37888;53.246;6.658;2023-08-31T12:35:43;1.33;;;0.43;;
51840;SDS011;37888;53.246;6.658;2023-08-31T12:38:09;0.75;;;0.35;;
51840;SDS011;37888;53.246;6.658;2023-08-31T12:40:39;1.88;;;0.50;;
51840;SDS011;37888;53.246;6.658;2023-08-31T12:43:05;1.75;;;0.40;;
51840;SDS011;37888;53.246;6.658;2023-08-31T12:45:31;3.10;;;0.60;;
51840;SDS011;37888;53.246;6.658;2023-08-31T12:47:58;1.20;;;0.50;;
51840;SDS011;37888;53.246;6.658;2023-08-31T12:50:24;3.97;;;1.00;;
51840;SDS011;37888;53.246;6.658;2023-08-31T12:52:50;1.10;;;0.50;;
51840;SDS011;37888;53.246;6.658;2023-08-31T12:55:16;3.13;;;0.43;;
51840;SDS011;37888;53.246;6.658;2023-08-31T12:57:42;3.75;;;0.70;;
51840;SDS011;37888;53.246;6.658;2023-08-31T13:00:08;0.95;;;0.35;;
51840;SDS011;37888;53.246;6.658;2023-08-31T13:02:39;1.60;;;0.50;;
51840;SDS011;37888;53.246;6.658;2023-08-31T13:05:06;1.10;;;0.40;;
51840;SDS011;37888;53.246;6.658;2023-08-31T13:07:33;1.77;;;0.52;;
51840;SDS011;37888;53.246;6.658;2023-08-31T13:10:01;2.47;;;0.80;;
51840;SDS011;37888;53.246;6.658;2023-08-31T13:12:31;2.75;;;0.65;;
51840;SDS011;37888;53.246;6.658;2023-08-31T13:14:58;2.37;;;0.53;;
51840;SDS011;37888;53.246;6.658;2023-08-31T13:17:24;1.67;;;0.63;;
51840;SDS011;37888;53.246;6.658;2023-08-31T13:22:18;1.25;;;0.47;;
51840;SDS011;37888;53.246;6.658;2023-08-31T13:24:44;2.20;;;0.50;;
51840;SDS011;37888;53.246;6.658;2023-08-31T13:27:10;2.37;;;0.50;;
51840;SDS011;37888;53.246;6.658;2023-08-31T13:29:36;2.85;;;0.50;;
51840;SDS011;37888;53.246;6.658;2023-08-31T13:32:02;2.65;;;0.57;;
51840;SDS011;37888;53.246;6.658;2023-08-31T13:34:29;2.88;;;0.65;;
51840;SDS011;37888;53.246;6.658;2023-08-31T13:36:55;3.00;;;0.60;;
51840;SDS011;37888;53.246;6.658;2023-08-31T13:39:21;4.88;;;0.70;;
51840;SDS011;37888;53.246;6.658;2023-08-31T13:41:50;1.50;;;0.40;;
51840;SDS011;37888;53.246;6.658;2023-08-31T13:44:19;2.30;;;0.50;;
51840;SDS011;37888;53.246;6.658;2023-08-31T13:46:45;1.67;;;0.60;;
51840;SDS011;37888;53.246;6.658;2023-08-31T13:49:12;3.33;;;0.50;;
51840;SDS011;37888;53.246;6.658;2023-08-31T13:51:38;2.03;;;0.52;;
51840;SDS011;37888;53.246;6.658;2023-08-31T13:54:04;1.95;;;0.50;;
51840;SDS011;37888;53.246;6.658;2023-08-31T13:56:32;3.05;;;0.60;;
51840;SDS011;37888;53.246;6.658;2023-08-31T13:58:58;2.50;;;0.77;;
51840;SDS011;37888;53.246;6.658;2023-08-31T14:01:25;3.38;;;0.60;;
51840;SDS011;37888;53.246;6.658;2023-08-31T14:03:52;2.25;;;0.40;;
51840;SDS011;37888;53.246;6.658;2023-08-31T14:06:18;2.97;;;0.60;;
51840;SDS011;37888;53.246;6.658;2023-08-31T14:08:44;1.42;;;0.40;;
51840;SDS011;37888;53.246;6.658;2023-08-31T14:11:10;3.17;;;0.50;;
51840;SDS011;37888;53.246;6.658;2023-08-31T14:13:36;4.50;;;0.60;;
51840;SDS011;37888;53.246;6.658;2023-08-31T14:16:01;2.75;;;0.68;;
51840;SDS011;37888;53.246;6.658;2023-08-31T14:18:28;1.30;;;0.50;;
51840;SDS011;37888;53.246;6.658;2023-08-31T14:20:56;7.00;;;1.05;;
51840;SDS011;37888;53.246;6.658;2023-08-31T14:23:29;2.20;;;0.68;;
51840;SDS011;37888;53.246;6.658;2023-08-31T14:26:04;2.85;;;0.60;;
51840;SDS011;37888;53.246;6.658;2023-08-31T14:28:37;3.08;;;0.73;;
51840;SDS011;37888;53.246;6.658;2023-08-31T14:31:06;1.85;;;0.50;;
51840;SDS011;37888;53.246;6.658;2023-08-31T14:33:38;1.00;;;0.50;;
51840;SDS011;37888;53.246;6.658;2023-08-31T14:36:04;2.40;;;0.60;;
51840;SDS011;37888;53.246;6.658;2023-08-31T14:38:29;2.47;;;0.55;;
51840;SDS011;37888;53.246;6.658;2023-08-31T14:40:55;2.72;;;0.50;;
51840;SDS011;37888;53.246;6.658;2023-08-31T14:43:21;1.15;;;0.40;;
51840;SDS011;37888;53.246;6.658;2023-08-31T14:45:47;2.47;;;0.70;;
51840;SDS011;37888;53.246;6.658;2023-08-31T14:48:16;1.20;;;0.60;;
51840;SDS011;37888;53.246;6.658;2023-08-31T14:50:44;3.05;;;0.57;;
51840;SDS011;37888;53.246;6.658;2023-08-31T14:53:10;2.15;;;0.70;;
51840;SDS011;37888;53.246;6.658;2023-08-31T14:55:36;2.67;;;0.70;;
51840;SDS011;37888;53.246;6.658;2023-08-31T14:58:03;1.42;;;0.50;;
51840;SDS011;37888;53.246;6.658;2023-08-31T15:00:31;2.38;;;0.40;;
51840;SDS011;37888;53.246;6.658;2023-08-31T15:02:57;2.25;;;0.50;;
51840;SDS011;37888;53.246;6.658;2023-08-31T15:05:28;1.00;;;0.40;;
51840;SDS011;37888;53.246;6.658;2023-08-31T15:08:00;2.33;;;0.50;;
51840;SDS011;37888;53.246;6.658;2023-08-31T15:10:30;2.33;;;0.60;;
51840;SDS011;37888;53.246;6.658;2023-08-31T15:12:55;2.67;;;0.70;;
51840;SDS011;37888;53.246;6.658;2023-08-31T15:15:27;1.63;;;0.50;;
51840;SDS011;37888;53.246;6.658;2023-08-31T15:17:57;1.55;;;0.50;;
51840;SDS011;37888;53.246;6.658;2023-08-31T15:20:23;1.20;;;0.47;;
51840;SDS011;37888;53.246;6.658;2023-08-31T15:22:49;1.48;;;0.40;;
51840;SDS011;37888;53.246;6.658;2023-08-31T15:25:15;2.15;;;0.50;;
51840;SDS011;37888;53.246;6.658;2023-08-31T15:27:41;2.25;;;0.80;;
51840;SDS011;37888;53.246;6.658;2023-08-31T15:30:08;2.33;;;0.60;;
51840;SDS011;37888;53.246;6.658;2023-08-31T15:32:35;2.17;;;0.50;;